TimeCST,TemperatureF,Dew PointF,Humidity,Sea Level PressureIn,VisibilityMPH,Wind Direction,Wind SpeedMPH,Gust SpeedMPH,PrecipitationIn,Events,Conditions,WindDirDegrees,DateUTC
12:52 AM,5.0,-0.9,76,30.05,10.0,NNW,17.3,-,N/A,,Clear,340,2014-01-04 06:52:00
1:52 AM,1.9,-5.1,72,30.08,10.0,NNW,17.3,-,N/A,,Clear,330,2014-01-04 07:52:00
2:52 AM,-0.9,-9.0,69,30.14,10.0,NW,8.1,-,N/A,,Clear,320,2014-01-04 08:52:00
3:52 AM,-2.9,-11.0,68,30.21,10.0,NW,10.4,-,N/A,,Clear,310,2014-01-04 09:52:00
4:52 AM,-4.0,-11.9,69,30.23,10.0,NW,9.2,-,N/A,,Clear,320,2014-01-04 10:52:00
5:52 AM,-5.1,-11.9,72,30.26,10.0,NNW,11.5,-,N/A,,Clear,330,2014-01-04 11:52:00
6:52 AM,-5.1,-11.9,72,30.29,10.0,West,3.5,-,N/A,,Mostly Cloudy,260,2014-01-04 12:52:00
7:52 AM,-5.1,-13.0,69,30.30,10.0,NW,9.2,-,N/A,,Mostly Cloudy,320,2014-01-04 13:52:00
8:52 AM,-4.0,-11.0,72,30.33,10.0,WNW,9.2,-,N/A,,Overcast,300,2014-01-04 14:52:00
9:52 AM,-2.9,-11.9,65,30.34,10.0,NW,13.8,-,N/A,,Overcast,320,2014-01-04 15:52:00
10:52 AM,-2.0,-11.9,63,30.38,10.0,NW,12.7,-,N/A,,Overcast,320,2014-01-04 16:52:00
11:52 AM,-2.0,-13.0,60,30.39,10.0,NW,12.7,-,N/A,,Scattered Clouds,310,2014-01-04 17:52:00
12:52 PM,-2.0,-13.0,60,30.39,10.0,NW,11.5,-,N/A,,Scattered Clouds,320,2014-01-04 18:52:00
1:52 PM,-2.0,-13.0,60,30.41,10.0,WNW,13.8,-,N/A,,Clear,300,2014-01-04 19:52:00
2:52 PM,-2.0,-11.9,63,30.43,10.0,WNW,16.1,-,N/A,,Clear,290,2014-01-04 20:52:00
3:52 PM,-2.0,-13.0,60,30.44,10.0,WNW,10.4,-,N/A,,Clear,290,2014-01-04 21:52:00
4:52 PM,-4.0,-14.1,62,30.45,10.0,West,10.4,-,N/A,,Clear,270,2014-01-04 22:52:00
5:52 PM,-5.1,-14.1,65,30.46,10.0,West,10.4,-,N/A,,Clear,280,2014-01-04 23:52:00
6:52 PM,-7.1,-15.0,68,30.46,10.0,WNW,16.1,-,N/A,,Clear,300,2014-01-05 00:52:00
7:52 PM,-9.9,-17.0,71,30.48,10.0,West,6.9,-,N/A,,Clear,270,2014-01-05 01:52:00
8:52 PM,-9.0,-16.1,71,30.47,10.0,West,12.7,-,N/A,,Clear,260,2014-01-05 02:52:00
9:52 PM,-9.0,-18.0,65,30.48,10.0,WNW,8.1,-,N/A,,Mostly Cloudy,290,2014-01-05 03:52:00
10:52 PM,-9.9,-18.0,68,30.48,10.0,West,11.5,-,N/A,,Clear,280,2014-01-05 04:52:00
11:52 PM,-9.0,-18.0,65,30.49,10.0,West,6.9,-,N/A,,Partly Cloudy,270,2014-01-05 05:52:00